sensor_id;sensor_type;location;lat;lon;timestamp;temperature;humidity
29321;DHT22;16323;51.130;6.612;2022-08-21T00:02:14;19.10;99.90
29321;DHT22;16323;51.130;6.612;2022-08-21T00:04:42;19.10;99.90
29321;DHT22;16323;51.130;6.612;2022-08-21T00:07:09;19.10;99.90
29321;DHT22;16323;51.130;6.612;2022-08-21T00:09:38;19.10;99.90
29321;DHT22;16323;51.130;6.612;2022-08-21T00:12:06;19.10;99.90
29321;DHT22;16323;51.130;6.612;2022-08-21T00:14:34;19.10;99.90
29321;DHT22;16323;51.130;6.612;2022-08-21T00:17:01;19.10;99.90
29321;DHT22;16323;51.130;6.612;2022-08-21T00:19:28;19.20;99.90
29321;DHT22;16323;51.130;6.612;2022-08-21T00:21:57;19.10;99.90
29321;DHT22;16323;51.130;6.612;2022-08-21T00:24:24;19.00;99.90
29321;DHT22;16323;51.130;6.612;2022-08-21T00:26:52;18.90;99.90
29321;DHT22;16323;51.130;6.612;2022-08-21T00:29:19;18.80;99.90
29321;DHT22;16323;51.130;6.612;2022-08-21T00:31:46;18.70;99.90
29321;DHT22;16323;51.130;6.612;2022-08-21T00:34:13;18.60;99.90
29321;DHT22;16323;51.130;6.612;2022-08-21T00:36:40;18.60;99.90
29321;DHT22;16323;51.130;6.612;2022-08-21T00:39:08;18.60;99.90
29321;DHT22;16323;51.130;6.612;2022-08-21T00:41:36;18.60;99.90
29321;DHT22;16323;51.130;6.612;2022-08-21T00:44:05;18.70;99.90
29321;DHT22;16323;51.130;6.612;2022-08-21T00:46:31;18.80;99.90
29321;DHT22;16323;51.130;6.612;2022-08-21T00:48:58;18.80;99.90
29321;DHT22;16323;51.130;6.612;2022-08-21T00:51:38;18.80;99.90
29321;DHT22;16323;51.130;6.612;2022-08-21T00:54:08;18.90;99.90
29321;DHT22;16323;51.130;6.612;2022-08-21T00:56:36;18.80;99.90
29321;DHT22;16323;51.130;6.612;2022-08-21T00:59:03;18.90;99.90
29321;DHT22;16323;51.130;6.612;2022-08-21T01:01:31;18.90;99.90
29321;DHT22;16323;51.130;6.612;2022-08-21T01:03:58;18.80;99.90
29321;DHT22;16323;51.130;6.612;2022-08-21T01:06:24;18.90;99.90
29321;DHT22;16323;51.130;6.612;2022-08-21T01:08:51;18.90;99.90
29321;DHT22;16323;51.130;6.612;2022-08-21T01:11:20;18.80;99.90
29321;DHT22;16323;51.130;6.612;2022-08-21T01:13:47;18.80;99.90
29321;DHT22;16323;51.130;6.612;2022-08-21T01:16:17;18.20;99.90
29321;DHT22;16323;51.130;6.612;2022-08-21T01:18:45;18.50;99.90
29321;DHT22;16323;51.130;6.612;2022-08-21T01:21:17;18.60;99.90
29321;DHT22;16323;51.130;6.612;2022-08-21T01:23:46;18.60;99.90
29321;DHT22;16323;51.130;6.612;2022-08-21T01:26:15;18.60;99.90
29321;DHT22;16323;51.130;6.612;2022-08-21T01:28:47;18.60;99.90
29321;DHT22;16323;51.130;6.612;2022-08-21T01:31:17;18.60;99.90
29321;DHT22;16323;51.130;6.612;2022-08-21T01:33:46;18.60;99.90
29321;DHT22;16323;51.130;6.612;2022-08-21T01:36:14;18.70;99.90
29321;DHT22;16323;51.130;6.612;2022-08-21T01:38:41;18.80;99.90
29321;DHT22;16323;51.130;6.612;2022-08-21T01:41:08;18.70;99.90
29321;DHT22;16323;51.130;6.612;2022-08-21T01:43:35;18.60;99.90
29321;DHT22;16323;51.130;6.612;2022-08-21T01:46:02;18.50;99.90
29321;DHT22;16323;51.130;6.612;2022-08-21T01:48:29;18.40;99.90
29321;DHT22;16323;51.130;6.612;2022-08-21T01:50:57;18.40;99.90
29321;DHT22;16323;51.130;6.612;2022-08-21T01:53:25;18.50;99.90
29321;DHT22;16323;51.130;6.612;2022-08-21T01:55:52;18.40;99.90
29321;DHT22;16323;51.130;6.612;2022-08-21T01:58:19;18.40;99.90
29321;DHT22;16323;51.130;6.612;2022-08-21T02:00:46;18.40;99.90
29321;DHT22;16323;51.130;6.612;2022-08-21T02:03:13;18.30;99.90
29321;DHT22;16323;51.130;6.612;2022-08-21T02:05:40;18.30;99.90
29321;DHT22;16323;51.130;6.612;2022-08-21T02:08:07;18.20;99.90
29321;DHT22;16323;51.130;6.612;2022-08-21T02:10:35;18.20;99.90
29321;DHT22;16323;51.130;6.612;2022-08-21T02:13:02;18.30;99.90
29321;DHT22;16323;51.130;6.612;2022-08-21T02:15:29;18.60;99.90
29321;DHT22;16323;51.130;6.612;2022-08-21T02:17:59;18.70;99.90
29321;DHT22;16323;51.130;6.612;2022-08-21T02:20:29;18.70;99.90
29321;DHT22;16323;51.130;6.612;2022-08-21T02:22:56;18.80;99.90
29321;DHT22;16323;51.130;6.612;2022-08-21T02:25:24;18.80;99.90
29321;DHT22;16323;51.130;6.612;2022-08-21T02:27:53;18.80;99.90
29321;DHT22;16323;51.130;6.612;2022-08-21T02:30:23;18.80;99.90
29321;DHT22;16323;51.130;6.612;2022-08-21T02:32:50;18.80;99.90
29321;DHT22;16323;51.130;6.612;2022-08-21T02:35:17;18.80;99.90
29321;DHT22;16323;51.130;6.612;2022-08-21T02:37:47;18.80;99.90
29321;DHT22;16323;51.130;6.612;2022-08-21T02:40:15;18.80;99.90
29321;DHT22;16323;51.130;6.612;2022-08-21T02:42:42;18.80;99.90
29321;DHT22;16323;51.130;6.612;2022-08-21T02:45:13;18.70;99.90
29321;DHT22;16323;51.130;6.612;2022-08-21T02:47:40;18.70;99.90
29321;DHT22;16323;51.130;6.612;2022-08-21T02:50:12;18.70;99.90
29321;DHT22;16323;51.130;6.612;2022-08-21T02:52:39;18.70;99.90
29321;DHT22;16323;51.130;6.612;2022-08-21T02:55:06;18.70;99.90
29321;DHT22;16323;51.130;6.612;2022-08-21T02:57:33;18.70;99.90
29321;DHT22;16323;51.130;6.612;2022-08-21T03:00:00;18.70;99.90
29321;DHT22;16323;51.130;6.612;2022-08-21T03:02:28;18.70;99.90
29321;DHT22;16323;51.130;6.612;2022-08-21T03:04:54;18.80;99.90
29321;DHT22;16323;51.130;6.612;2022-08-21T03:07:21;18.70;99.90
29321;DHT22;16323;51.130;6.612;2022-08-21T03:09:48;18.70;99.90
29321;DHT22;16323;51.130;6.612;2022-08-21T03:12:15;18.60;99.90
29321;DHT22;16323;51.130;6.612;2022-08-21T03:14:42;18.60;99.90
29321;DHT22;16323;51.130;6.612;2022-08-21T03:17:08;18.50;99.90
29321;DHT22;16323;51.130;6.612;2022-08-21T03:19:37;18.50;99.90
29321;DHT22;16323;51.130;6.612;2022-08-21T03:22:04;18.40;99.90
29321;DHT22;16323;51.130;6.612;2022-08-21T03:24:31;18.50;99.90
29321;DHT22;16323;51.130;6.612;2022-08-21T03:26:58;18.50;99.90
29321;DHT22;16323;51.130;6.612;2022-08-21T03:29:25;18.50;99.90
29321;DHT22;16323;51.130;6.612;2022-08-21T03:31:52;18.40;99.90
29321;DHT22;16323;51.130;6.612;2022-08-21T03:34:20;18.40;99.90
29321;DHT22;16323;51.130;6.612;2022-08-21T03:36:48;18.40;99.90
29321;DHT22;16323;51.130;6.612;2022-08-21T03:39:15;18.40;99.90
29321;DHT22;16323;51.130;6.612;2022-08-21T03:41:42;18.40;99.90
29321;DHT22;16323;51.130;6.612;2022-08-21T03:44:09;18.50;99.90
29321;DHT22;16323;51.130;6.612;2022-08-21T03:46:36;18.50;99.90
29321;DHT22;16323;51.130;6.612;2022-08-21T03:49:02;18.50;99.90
29321;DHT22;16323;51.130;6.612;2022-08-21T03:51:29;18.40;99.90
29321;DHT22;16323;51.130;6.612;2022-08-21T03:53:59;18.40;99.90
29321;DHT22;16323;51.130;6.612;2022-08-21T03:56:25;18.30;99.90
29321;DHT22;16323;51.130;6.612;2022-08-21T03:58:52;18.40;99.90
29321;DHT22;16323;51.130;6.612;2022-08-21T04:01:19;18.30;99.90
29321;DHT22;16323;51.130;6.612;2022-08-21T04:03:46;18.20;99.90
29321;DHT22;16323;51.130;6.612;2022-08-21T04:06:13;18.20;99.90
29321;DHT22;16323;51.130;6.612;2022-08-21T04:08:40;18.20;99.90
29321;DHT22;16323;51.130;6.612;2022-08-21T04:11:09;18.20;99.90
29321;DHT22;16323;51.130;6.612;2022-08-21T04:13:36;18.20;99.90
29321;DHT22;16323;51.130;6.612;2022-08-21T04:16:03;18.20;99.90
29321;DHT22;16323;51.130;6.612;2022-08-21T04:18:30;18.20;99.90
29321;DHT22;16323;51.130;6.612;2022-08-21T04:20:58;18.20;99.90
29321;DHT22;16323;51.130;6.612;2022-08-21T04:23:26;18.20;99.90
29321;DHT22;16323;51.130;6.612;2022-08-21T04:25:54;18.10;99.90
29321;DHT22;16323;51.130;6.612;2022-08-21T04:28:23;18.10;99.90
29321;DHT22;16323;51.130;6.612;2022-08-21T04:30:51;18.10;99.90
29321;DHT22;16323;51.130;6.612;2022-08-21T04:33:18;18.10;99.90
29321;DHT22;16323;51.130;6.612;2022-08-21T04:35:45;18.10;99.90
29321;DHT22;16323;51.130;6.612;2022-08-21T04:38:12;18.10;99.90
29321;DHT22;16323;51.130;6.612;2022-08-21T04:40:39;18.10;99.90
29321;DHT22;16323;51.130;6.612;2022-08-21T04:43:11;18.10;99.90
29321;DHT22;16323;51.130;6.612;2022-08-21T04:45:41;18.10;99.90
29321;DHT22;16323;51.130;6.612;2022-08-21T04:48:10;18.10;99.90
29321;DHT22;16323;51.130;6.612;2022-08-21T04:50:40;18.10;99.90
29321;DHT22;16323;51.130;6.612;2022-08-21T04:53:11;18.10;99.90
29321;DHT22;16323;51.130;6.612;2022-08-21T04:55:39;18.10;99.90
29321;DHT22;16323;51.130;6.612;2022-08-21T04:58:09;18.00;99.90
29321;DHT22;16323;51.130;6.612;2022-08-21T05:00:39;17.90;99.90
29321;DHT22;16323;51.130;6.612;2022-08-21T05:03:08;18.00;99.90
29321;DHT22;16323;51.130;6.612;2022-08-21T05:05:35;17.90;99.90
29321;DHT22;16323;51.130;6.612;2022-08-21T05:08:03;17.90;99.90
29321;DHT22;16323;51.130;6.612;2022-08-21T05:10:31;17.90;99.90
29321;DHT22;16323;51.130;6.612;2022-08-21T05:12:58;18.00;99.90
29321;DHT22;16323;51.130;6.612;2022-08-21T05:15:26;18.00;99.90
29321;DHT22;16323;51.130;6.612;2022-08-21T05:17:54;18.00;99.90
29321;DHT22;16323;51.130;6.612;2022-08-21T05:20:21;17.90;99.90
29321;DHT22;16323;51.130;6.612;2022-08-21T05:22:49;17.90;99.90
29321;DHT22;16323;51.130;6.612;2022-08-21T05:25:16;18.00;99.90
29321;DHT22;16323;51.130;6.612;2022-08-21T05:27:43;18.00;99.90
29321;DHT22;16323;51.130;6.612;2022-08-21T05:30:10;18.10;99.90
29321;DHT22;16323;51.130;6.612;2022-08-21T05:32:37;18.10;99.90
29321;DHT22;16323;51.130;6.612;2022-08-21T05:35:07;18.20;99.90
29321;DHT22;16323;51.130;6.612;2022-08-21T05:37:34;18.30;99.80
29321;DHT22;16323;51.130;6.612;2022-08-21T05:40:02;18.40;99.10
29321;DHT22;16323;51.130;6.612;2022-08-21T05:42:30;18.40;98.40
29321;DHT22;16323;51.130;6.612;2022-08-21T05:44:56;18.20;98.70
29321;DHT22;16323;51.130;6.612;2022-08-21T05:47:23;18.30;98.50
29321;DHT22;16323;51.130;6.612;2022-08-21T05:49:50;18.40;98.90
29321;DHT22;16323;51.130;6.612;2022-08-21T05:52:20;18.50;98.70
29321;DHT22;16323;51.130;6.612;2022-08-21T05:54:47;18.50;98.90
29321;DHT22;16323;51.130;6.612;2022-08-21T05:57:13;18.60;98.90
29321;DHT22;16323;51.130;6.612;2022-08-21T05:59:40;18.80;98.90
29321;DHT22;16323;51.130;6.612;2022-08-21T06:02:07;18.60;99.30
29321;DHT22;16323;51.130;6.612;2022-08-21T06:04:35;18.60;99.10
29321;DHT22;16323;51.130;6.612;2022-08-21T06:07:04;18.60;99.00
29321;DHT22;16323;51.130;6.612;2022-08-21T06:09:32;18.60;98.80
29321;DHT22;16323;51.130;6.612;2022-08-21T06:12:03;18.60;99.10
29321;DHT22;16323;51.130;6.612;2022-08-21T06:14:30;18.60;99.30
29321;DHT22;16323;51.130;6.612;2022-08-21T06:17:02;18.60;98.80
29321;DHT22;16323;51.130;6.612;2022-08-21T06:19:29;18.60;99.00
29321;DHT22;16323;51.130;6.612;2022-08-21T06:21:55;18.70;98.60
29321;DHT22;16323;51.130;6.612;2022-08-21T06:24:22;18.80;98.70
29321;DHT22;16323;51.130;6.612;2022-08-21T06:26:51;18.80;99.20
29321;DHT22;16323;51.130;6.612;2022-08-21T06:29:19;18.90;98.70
29321;DHT22;16323;51.130;6.612;2022-08-21T06:31:47;18.90;97.40
29321;DHT22;16323;51.130;6.612;2022-08-21T06:34:14;18.70;97.10
29321;DHT22;16323;51.130;6.612;2022-08-21T06:36:41;18.90;97.20
29321;DHT22;16323;51.130;6.612;2022-08-21T06:39:08;18.70;96.80
29321;DHT22;16323;51.130;6.612;2022-08-21T06:41:35;18.90;96.60
29321;DHT22;16323;51.130;6.612;2022-08-21T06:44:03;19.10;96.30
29321;DHT22;16323;51.130;6.612;2022-08-21T06:46:31;19.20;95.70
29321;DHT22;16323;51.130;6.612;2022-08-21T06:48:58;19.20;95.90
29321;DHT22;16323;51.130;6.612;2022-08-21T06:51:25;19.20;95.70
29321;DHT22;16323;51.130;6.612;2022-08-21T06:53:52;19.20;95.00
29321;DHT22;16323;51.130;6.612;2022-08-21T06:56:20;19.10;95.80
29321;DHT22;16323;51.130;6.612;2022-08-21T06:58:47;19.10;96.70
29321;DHT22;16323;51.130;6.612;2022-08-21T07:01:15;19.20;96.30
29321;DHT22;16323;51.130;6.612;2022-08-21T07:03:42;19.10;95.60
29321;DHT22;16323;51.130;6.612;2022-08-21T07:06:10;19.10;95.30
29321;DHT22;16323;51.130;6.612;2022-08-21T07:08:38;19.10;95.60
29321;DHT22;16323;51.130;6.612;2022-08-21T07:11:09;19.20;95.60
29321;DHT22;16323;51.130;6.612;2022-08-21T07:13:37;19.50;95.20
29321;DHT22;16323;51.130;6.612;2022-08-21T07:16:04;19.40;94.70
29321;DHT22;16323;51.130;6.612;2022-08-21T07:18:32;19.40;94.30
29321;DHT22;16323;51.130;6.612;2022-08-21T07:21:00;19.40;94.70
29321;DHT22;16323;51.130;6.612;2022-08-21T07:23:30;19.50;94.50
29321;DHT22;16323;51.130;6.612;2022-08-21T07:25:58;19.70;94.40
29321;DHT22;16323;51.130;6.612;2022-08-21T07:28:26;19.70;94.70
29321;DHT22;16323;51.130;6.612;2022-08-21T07:30:56;19.90;94.70
29321;DHT22;16323;51.130;6.612;2022-08-21T07:33:26;20.00;94.10
29321;DHT22;16323;51.130;6.612;2022-08-21T07:35:55;19.90;93.60
29321;DHT22;16323;51.130;6.612;2022-08-21T07:38:22;20.00;93.50
29321;DHT22;16323;51.130;6.612;2022-08-21T07:40:51;20.00;93.10
29321;DHT22;16323;51.130;6.612;2022-08-21T07:43:18;19.90;92.90
29321;DHT22;16323;51.130;6.612;2022-08-21T07:45:47;20.10;93.70
29321;DHT22;16323;51.130;6.612;2022-08-21T07:48:14;20.60;92.10
29321;DHT22;16323;51.130;6.612;2022-08-21T07:50:42;20.90;91.60
29321;DHT22;16323;51.130;6.612;2022-08-21T07:53:10;21.10;90.60
29321;DHT22;16323;51.130;6.612;2022-08-21T07:55:37;21.20;90.40
29321;DHT22;16323;51.130;6.612;2022-08-21T07:58:05;21.30;90.10
29321;DHT22;16323;51.130;6.612;2022-08-21T08:00:33;21.20;89.50
29321;DHT22;16323;51.130;6.612;2022-08-21T08:03:00;21.10;89.80
29321;DHT22;16323;51.130;6.612;2022-08-21T08:05:30;21.10;90.00
29321;DHT22;16323;51.130;6.612;2022-08-21T08:07:57;21.30;90.20
29321;DHT22;16323;51.130;6.612;2022-08-21T08:10:26;21.40;88.90
29321;DHT22;16323;51.130;6.612;2022-08-21T08:12:53;21.40;88.90
29321;DHT22;16323;51.130;6.612;2022-08-21T08:15:22;21.30;88.20
29321;DHT22;16323;51.130;6.612;2022-08-21T08:17:50;21.10;87.80
29321;DHT22;16323;51.130;6.612;2022-08-21T08:20:17;21.00;88.80
29321;DHT22;16323;51.130;6.612;2022-08-21T08:22:46;21.10;88.10
29321;DHT22;16323;51.130;6.612;2022-08-21T08:25:13;21.20;88.90
29321;DHT22;16323;51.130;6.612;2022-08-21T08:27:43;21.40;89.30
29321;DHT22;16323;51.130;6.612;2022-08-21T08:30:12;21.40;87.30
29321;DHT22;16323;51.130;6.612;2022-08-21T08:32:40;21.40;88.00
29321;DHT22;16323;51.130;6.612;2022-08-21T08:35:08;21.50;88.00
29321;DHT22;16323;51.130;6.612;2022-08-21T08:37:35;21.60;88.60
29321;DHT22;16323;51.130;6.612;2022-08-21T08:40:06;21.70;88.90
29321;DHT22;16323;51.130;6.612;2022-08-21T08:42:35;21.70;87.30
29321;DHT22;16323;51.130;6.612;2022-08-21T08:45:06;21.70;89.80
29321;DHT22;16323;51.130;6.612;2022-08-21T08:47:36;21.70;88.80
29321;DHT22;16323;51.130;6.612;2022-08-21T08:50:07;21.50;89.20
29321;DHT22;16323;51.130;6.612;2022-08-21T08:52:40;21.60;86.50
29321;DHT22;16323;51.130;6.612;2022-08-21T08:55:12;21.50;88.90
29321;DHT22;16323;51.130;6.612;2022-08-21T08:57:44;21.50;88.00
29321;DHT22;16323;51.130;6.612;2022-08-21T09:00:15;21.40;85.10
29321;DHT22;16323;51.130;6.612;2022-08-21T09:02:44;21.50;87.40
29321;DHT22;16323;51.130;6.612;2022-08-21T09:05:23;21.60;86.10
29321;DHT22;16323;51.130;6.612;2022-08-21T09:08:14;21.40;85.10
29321;DHT22;16323;51.130;6.612;2022-08-21T09:10:50;21.40;85.10
29321;DHT22;16323;51.130;6.612;2022-08-21T09:13:26;21.60;87.20
29321;DHT22;16323;51.130;6.612;2022-08-21T09:16:03;21.80;87.30
29321;DHT22;16323;51.130;6.612;2022-08-21T09:18:41;22.00;86.00
29321;DHT22;16323;51.130;6.612;2022-08-21T09:21:18;21.90;85.50
29321;DHT22;16323;51.130;6.612;2022-08-21T09:23:55;21.80;85.10
29321;DHT22;16323;51.130;6.612;2022-08-21T09:26:27;21.90;85.90
29321;DHT22;16323;51.130;6.612;2022-08-21T09:28:59;22.10;85.20
29321;DHT22;16323;51.130;6.612;2022-08-21T09:31:30;22.10;83.80
29321;DHT22;16323;51.130;6.612;2022-08-21T09:33:58;22.20;84.40
29321;DHT22;16323;51.130;6.612;2022-08-21T09:36:40;22.20;84.60
29321;DHT22;16323;51.130;6.612;2022-08-21T09:39:09;22.30;86.20
29321;DHT22;16323;51.130;6.612;2022-08-21T09:41:37;22.20;82.10
29321;DHT22;16323;51.130;6.612;2022-08-21T09:44:06;22.30;84.40
29321;DHT22;16323;51.130;6.612;2022-08-21T09:46:34;22.30;83.50
29321;DHT22;16323;51.130;6.612;2022-08-21T09:49:04;22.30;82.00
29321;DHT22;16323;51.130;6.612;2022-08-21T09:51:32;22.40;85.30
29321;DHT22;16323;51.130;6.612;2022-08-21T09:54:12;22.40;82.30
29321;DHT22;16323;51.130;6.612;2022-08-21T09:56:54;22.40;83.80
29321;DHT22;16323;51.130;6.612;2022-08-21T09:59:39;22.40;81.70
29321;DHT22;16323;51.130;6.612;2022-08-21T10:02:23;22.40;80.30
29321;DHT22;16323;51.130;6.612;2022-08-21T10:04:51;22.30;80.30
29321;DHT22;16323;51.130;6.612;2022-08-21T10:07:21;22.40;82.00
29321;DHT22;16323;51.130;6.612;2022-08-21T10:09:58;22.40;81.00
29321;DHT22;16323;51.130;6.612;2022-08-21T10:12:33;22.50;83.40
29321;DHT22;16323;51.130;6.612;2022-08-21T10:15:20;22.50;80.40
29321;DHT22;16323;51.130;6.612;2022-08-21T10:17:56;22.50;79.80
29321;DHT22;16323;51.130;6.612;2022-08-21T10:20:29;22.50;82.40
29321;DHT22;16323;51.130;6.612;2022-08-21T10:23:05;22.60;82.40
29321;DHT22;16323;51.130;6.612;2022-08-21T10:25:38;22.60;81.50
29321;DHT22;16323;51.130;6.612;2022-08-21T10:28:10;22.60;82.80
29321;DHT22;16323;51.130;6.612;2022-08-21T10:30:46;22.60;80.50
29321;DHT22;16323;51.130;6.612;2022-08-21T10:33:27;22.70;80.60
29321;DHT22;16323;51.130;6.612;2022-08-21T10:36:02;22.50;77.80
29321;DHT22;16323;51.130;6.612;2022-08-21T10:41:46;22.60;78.20
29321;DHT22;16323;51.130;6.612;2022-08-21T10:44:24;22.60;79.30
29321;DHT22;16323;51.130;6.612;2022-08-21T10:47:00;22.60;77.30
29321;DHT22;16323;51.130;6.612;2022-08-21T10:49:39;22.60;76.30
29321;DHT22;16323;51.130;6.612;2022-08-21T10:52:34;22.50;76.10
29321;DHT22;16323;51.130;6.612;2022-08-21T10:55:06;22.60;79.20
29321;DHT22;16323;51.130;6.612;2022-08-21T10:57:40;22.60;75.90
29321;DHT22;16323;51.130;6.612;2022-08-21T11:00:10;22.60;78.00
29321;DHT22;16323;51.130;6.612;2022-08-21T11:02:40;22.70;81.70
29321;DHT22;16323;51.130;6.612;2022-08-21T11:05:15;22.80;80.80
29321;DHT22;16323;51.130;6.612;2022-08-21T11:07:46;22.80;78.50
29321;DHT22;16323;51.130;6.612;2022-08-21T11:10:19;22.80;80.00
29321;DHT22;16323;51.130;6.612;2022-08-21T11:12:52;22.80;78.60
29321;DHT22;16323;51.130;6.612;2022-08-21T11:15:27;22.90;80.30
29321;DHT22;16323;51.130;6.612;2022-08-21T11:18:21;23.00;79.70
29321;DHT22;16323;51.130;6.612;2022-08-21T11:20:55;23.00;79.60
29321;DHT22;16323;51.130;6.612;2022-08-21T11:23:29;22.90;76.80
29321;DHT22;16323;51.130;6.612;2022-08-21T11:26:01;22.90;74.30
29321;DHT22;16323;51.130;6.612;2022-08-21T11:28:33;22.90;75.00
29321;DHT22;16323;51.130;6.612;2022-08-21T11:31:12;23.00;81.70
29321;DHT22;16323;51.130;6.612;2022-08-21T11:33:53;22.90;73.40
29321;DHT22;16323;51.130;6.612;2022-08-21T11:36:29;22.80;72.50
29321;DHT22;16323;51.130;6.612;2022-08-21T11:39:06;22.80;74.30
29321;DHT22;16323;51.130;6.612;2022-08-21T11:41:38;22.90;74.20
29321;DHT22;16323;51.130;6.612;2022-08-21T11:44:13;22.90;73.50
29321;DHT22;16323;51.130;6.612;2022-08-21T11:46:48;22.80;72.30
29321;DHT22;16323;51.130;6.612;2022-08-21T11:49:30;22.80;72.70
29321;DHT22;16323;51.130;6.612;2022-08-21T11:52:08;22.80;74.80
29321;DHT22;16323;51.130;6.612;2022-08-21T11:54:42;22.80;72.90
29321;DHT22;16323;51.130;6.612;2022-08-21T11:57:16;22.80;76.90
29321;DHT22;16323;51.130;6.612;2022-08-21T11:59:48;22.80;73.70
29321;DHT22;16323;51.130;6.612;2022-08-21T12:02:19;22.90;76.20
29321;DHT22;16323;51.130;6.612;2022-08-21T12:04:48;23.00;75.30
29321;DHT22;16323;51.130;6.612;2022-08-21T12:07:28;23.10;75.50
29321;DHT22;16323;51.130;6.612;2022-08-21T12:09:57;23.10;78.50
29321;DHT22;16323;51.130;6.612;2022-08-21T12:12:26;23.00;80.60
29321;DHT22;16323;51.130;6.612;2022-08-21T12:15:13;23.00;79.40
29321;DHT22;16323;51.130;6.612;2022-08-21T12:17:52;23.00;75.90
29321;DHT22;16323;51.130;6.612;2022-08-21T12:20:26;23.00;74.50
29321;DHT22;16323;51.130;6.612;2022-08-21T12:23:03;23.00;73.60
29321;DHT22;16323;51.130;6.612;2022-08-21T12:25:37;23.00;73.60
29321;DHT22;16323;51.130;6.612;2022-08-21T12:28:08;23.00;72.80
29321;DHT22;16323;51.130;6.612;2022-08-21T12:30:37;23.10;72.30
29321;DHT22;16323;51.130;6.612;2022-08-21T12:33:17;23.10;69.60
29321;DHT22;16323;51.130;6.612;2022-08-21T12:35:45;23.10;71.40
29321;DHT22;16323;51.130;6.612;2022-08-21T12:38:18;23.10;69.20
29321;DHT22;16323;51.130;6.612;2022-08-21T12:40:50;23.10;68.60
29321;DHT22;16323;51.130;6.612;2022-08-21T12:43:20;23.20;67.00
29321;DHT22;16323;51.130;6.612;2022-08-21T12:45:49;23.30;69.80
29321;DHT22;16323;51.130;6.612;2022-08-21T12:48:21;23.30;70.90
29321;DHT22;16323;51.130;6.612;2022-08-21T12:50:51;23.30;70.90
29321;DHT22;16323;51.130;6.612;2022-08-21T12:53:26;23.40;68.60
29321;DHT22;16323;51.130;6.612;2022-08-21T12:55:56;23.40;70.00
29321;DHT22;16323;51.130;6.612;2022-08-21T12:58:27;23.40;67.90
29321;DHT22;16323;51.130;6.612;2022-08-21T13:00:59;23.40;66.10
29321;DHT22;16323;51.130;6.612;2022-08-21T13:03:27;23.40;66.10
29321;DHT22;16323;51.130;6.612;2022-08-21T13:05:54;23.40;64.00
29321;DHT22;16323;51.130;6.612;2022-08-21T13:08:25;23.40;66.10
29321;DHT22;16323;51.130;6.612;2022-08-21T13:10:58;23.40;65.60
29321;DHT22;16323;51.130;6.612;2022-08-21T13:13:27;23.40;64.90
29321;DHT22;16323;51.130;6.612;2022-08-21T13:15:58;23.50;65.70
29321;DHT22;16323;51.130;6.612;2022-08-21T13:18:30;23.50;65.00
29321;DHT22;16323;51.130;6.612;2022-08-21T13:21:06;23.40;65.80
29321;DHT22;16323;51.130;6.612;2022-08-21T13:23:35;23.50;64.10
29321;DHT22;16323;51.130;6.612;2022-08-21T13:26:12;23.50;65.60
29321;DHT22;16323;51.130;6.612;2022-08-21T13:28:39;23.50;65.10
29321;DHT22;16323;51.130;6.612;2022-08-21T13:31:08;23.50;66.60
29321;DHT22;16323;51.130;6.612;2022-08-21T13:33:37;23.40;69.20
29321;DHT22;16323;51.130;6.612;2022-08-21T13:36:09;23.40;71.00
29321;DHT22;16323;51.130;6.612;2022-08-21T13:38:41;23.40;67.90
29321;DHT22;16323;51.130;6.612;2022-08-21T13:41:16;23.60;65.50
29321;DHT22;16323;51.130;6.612;2022-08-21T13:43:55;23.70;64.90
29321;DHT22;16323;51.130;6.612;2022-08-21T13:46:24;23.70;64.40
29321;DHT22;16323;51.130;6.612;2022-08-21T13:48:53;23.70;64.70
29321;DHT22;16323;51.130;6.612;2022-08-21T13:51:21;23.70;64.50
29321;DHT22;16323;51.130;6.612;2022-08-21T13:53:51;23.80;64.60
29321;DHT22;16323;51.130;6.612;2022-08-21T13:56:23;23.70;64.70
29321;DHT22;16323;51.130;6.612;2022-08-21T13:58:51;23.80;62.90
29321;DHT22;16323;51.130;6.612;2022-08-21T14:01:22;23.90;63.60
29321;DHT22;16323;51.130;6.612;2022-08-21T14:03:51;23.90;62.60
29321;DHT22;16323;51.130;6.612;2022-08-21T14:06:22;23.90;61.70
29321;DHT22;16323;51.130;6.612;2022-08-21T14:08:53;23.90;64.20
29321;DHT22;16323;51.130;6.612;2022-08-21T14:11:21;23.90;66.70
29321;DHT22;16323;51.130;6.612;2022-08-21T14:13:49;23.90;65.30
29321;DHT22;16323;51.130;6.612;2022-08-21T14:16:20;23.80;72.20
29321;DHT22;16323;51.130;6.612;2022-08-21T14:18:52;23.80;71.50
29321;DHT22;16323;51.130;6.612;2022-08-21T14:21:31;23.90;69.70
29321;DHT22;16323;51.130;6.612;2022-08-21T14:24:02;24.00;72.10
29321;DHT22;16323;51.130;6.612;2022-08-21T14:26:30;24.10;70.90
29321;DHT22;16323;51.130;6.612;2022-08-21T14:28:59;24.00;71.50
29321;DHT22;16323;51.130;6.612;2022-08-21T14:31:30;24.00;65.40
29321;DHT22;16323;51.130;6.612;2022-08-21T14:33:59;24.00;69.10
29321;DHT22;16323;51.130;6.612;2022-08-21T14:36:26;24.00;71.00
29321;DHT22;16323;51.130;6.612;2022-08-21T14:38:53;24.00;72.60
29321;DHT22;16323;51.130;6.612;2022-08-21T14:41:22;24.00;72.10
29321;DHT22;16323;51.130;6.612;2022-08-21T14:43:51;24.10;72.60
29321;DHT22;16323;51.130;6.612;2022-08-21T14:46:22;24.10;72.10
29321;DHT22;16323;51.130;6.612;2022-08-21T14:48:49;24.10;70.00
29321;DHT22;16323;51.130;6.612;2022-08-21T14:51:17;24.10;72.50
29321;DHT22;16323;51.130;6.612;2022-08-21T14:53:44;24.10;71.80
29321;DHT22;16323;51.130;6.612;2022-08-21T14:56:11;24.10;72.60
29321;DHT22;16323;51.130;6.612;2022-08-21T14:58:41;24.10;71.90
29321;DHT22;16323;51.130;6.612;2022-08-21T15:01:11;24.10;72.10
29321;DHT22;16323;51.130;6.612;2022-08-21T15:03:39;24.10;71.00
29321;DHT22;16323;51.130;6.612;2022-08-21T15:06:07;24.20;71.40
29321;DHT22;16323;51.130;6.612;2022-08-21T15:08:34;24.20;71.40
29321;DHT22;16323;51.130;6.612;2022-08-21T15:11:03;24.10;71.40
29321;DHT22;16323;51.130;6.612;2022-08-21T15:13:30;24.10;71.40
29321;DHT22;16323;51.130;6.612;2022-08-21T15:15:59;24.10;71.90
29321;DHT22;16323;51.130;6.612;2022-08-21T15:18:27;24.10;70.80
29321;DHT22;16323;51.130;6.612;2022-08-21T15:20:55;24.10;72.20
29321;DHT22;16323;51.130;6.612;2022-08-21T15:23:22;24.10;72.20
29321;DHT22;16323;51.130;6.612;2022-08-21T15:25:49;24.10;71.90
29321;DHT22;16323;51.130;6.612;2022-08-21T15:28:17;24.10;71.30
29321;DHT22;16323;51.130;6.612;2022-08-21T15:30:46;24.20;71.00
29321;DHT22;16323;51.130;6.612;2022-08-21T15:33:14;24.10;68.80
29321;DHT22;16323;51.130;6.612;2022-08-21T15:35:41;24.00;72.10
29321;DHT22;16323;51.130;6.612;2022-08-21T15:38:07;24.00;70.20
29321;DHT22;16323;51.130;6.612;2022-08-21T15:40:35;23.80;72.80
29321;DHT22;16323;51.130;6.612;2022-08-21T15:43:03;23.70;73.00
29321;DHT22;16323;51.130;6.612;2022-08-21T15:45:31;23.80;75.90
29321;DHT22;16323;51.130;6.612;2022-08-21T15:47:58;23.90;73.90
29321;DHT22;16323;51.130;6.612;2022-08-21T15:50:28;23.90;72.00